Time;durP1;ratioP1;P1;durP2;ratioP2;P2;SDS_P1;SDS_P2;PMS_P1;PMS_P2;Temp;Humidity;BMP_temperature;BMP_pressure;BME280_temperature;BME280_humidity;BME280_pressure;Samples;Min_cycle;Max_cycle;Signal;HPM_P1;HPM_P2
2023/07/16 00:02:05;;;;;;;5.10;3.47;;;22.70;99.90;;;;;;5091293;28;20172;-70
2023/07/16 00:04:32;;;;;;;5.13;3.17;;;22.70;99.90;;;;;;5087854;28;20279;-71
2023/07/16 00:06:59;;;;;;;4.17;3.77;;;22.60;99.90;;;;;;5090240;28;20174;-70
2023/07/16 00:09:25;;;;;;;3.80;2.93;;;22.50;99.90;;;;;;5083733;28;20433;-70
2023/07/16 00:11:50;;;;;;;3.73;3.40;;;22.50;99.90;;;;;;5090057;28;20417;-71
2023/07/16 00:14:16;;;;;;;3.50;3.20;;;22.50;99.90;;;;;;5091577;28;20320;-70
2023/07/16 00:16:41;;;;;;;4.27;2.83;;;22.40;99.90;;;;;;5088446;28;20199;-70
2023/07/16 00:19:09;;;;;;;4.13;2.90;;;22.40;99.90;;;;;;5090444;28;20197;-71
2023/07/16 00:21:35;;;;;;;5.10;3.60;;;22.40;99.90;;;;;;5087648;28;20520;-69
2023/07/16 00:24:00;;;;;;;3.80;3.30;;;22.30;99.90;;;;;;5090565;28;20408;-71
2023/07/16 00:26:26;;;;;;;3.47;3.17;;;22.30;99.90;;;;;;5088861;28;20172;-70
2023/07/16 00:28:52;;;;;;;2.90;2.60;;;22.20;99.90;;;;;;5090030;28;20173;-69
2023/07/16 00:31:18;;;;;;;6.37;2.90;;;22.20;99.90;;;;;;5091347;28;20506;-69
2023/07/16 00:33:43;;;;;;;3.47;3.27;;;22.10;99.90;;;;;;5088032;28;20175;-69
2023/07/16 00:36:09;;;;;;;3.73;2.87;;;22.20;99.90;;;;;;5090061;28;20548;-72
2023/07/16 00:38:34;;;;;;;3.47;2.83;;;22.20;99.90;;;;;;5086736;28;20297;-71
2023/07/16 00:41:00;;;;;;;5.63;3.30;;;22.20;99.90;;;;;;5089195;28;20199;-69
2023/07/16 00:43:25;;;;;;;3.10;2.90;;;22.20;99.90;;;;;;5086306;28;20231;-71
2023/07/16 00:45:51;;;;;;;3.00;2.80;;;22.30;99.90;;;;;;5088427;28;20263;-70
2023/07/16 00:48:17;;;;;;;4.60;2.83;;;22.50;99.90;;;;;;5090927;28;20178;-72
2023/07/16 00:50:43;;;;;;;3.67;3.37;;;22.40;99.90;;;;;;5087481;28;20234;-70
2023/07/16 00:53:10;;;;;;;3.73;3.40;;;22.40;99.90;;;;;;5071576;28;20196;-70
2023/07/16 00:55:36;;;;;;;3.30;3.10;;;22.60;99.90;;;;;;5091293;28;20230;-69
2023/07/16 00:58:05;;;;;;;3.03;2.60;;;22.70;99.90;;;;;;5091117;28;20455;-72
2023/07/16 01:00:39;;;;;;;5.20;3.40;;;22.60;99.90;;;;;;5087103;28;20440;-71
2023/07/16 01:03:08;;;;;;;5.83;3.23;;;22.70;99.90;;;;;;5090571;28;20928;-70
2023/07/16 01:06:09;;;;;;;4.13;3.73;;;22.80;99.90;;;;;;5086272;28;20442;-70
2023/07/16 01:08:38;;;;;;;3.43;3.13;;;22.80;99.90;;;;;;5078482;28;20442;-70
2023/07/16 01:11:04;;;;;;;3.60;3.17;;;22.80;99.90;;;;;;5088383;28;20931;-70
2023/07/16 01:13:31;;;;;;;3.17;2.87;;;22.80;99.90;;;;;;5091042;28;20859;-72
2023/07/16 01:15:57;;;;;;;4.17;3.87;;;22.80;99.90;;;;;;5087575;28;20872;-69
2023/07/16 01:18:23;;;;;;;5.90;4.17;;;22.80;99.90;;;;;;5097584;28;20463;-69
2023/07/16 01:20:48;;;;;;;3.33;2.93;;;22.90;99.90;;;;;;5091031;28;20373;-71
2023/07/16 01:23:34;;;;;;;3.90;3.60;;;22.90;99.90;;;;;;5089959;28;20199;-71
2023/07/16 01:26:37;;;;;;;3.67;3.33;;;22.90;99.90;;;;;;5070852;28;20263;-70
2023/07/16 01:29:09;;;;;;;4.03;3.60;;;22.90;99.90;;;;;;5087127;28;20439;-70
2023/07/16 01:31:35;;;;;;;4.00;3.70;;;22.90;99.90;;;;;;5087628;28;20932;-69
2023/07/16 01:34:04;;;;;;;4.00;3.60;;;22.90;99.90;;;;;;5074906;28;20413;-69
2023/07/16 01:36:33;;;;;;;4.13;3.73;;;22.80;99.90;;;;;;5086457;28;20183;-69
2023/07/16 01:38:58;;;;;;;4.43;3.90;;;22.80;99.90;;;;;;5095190;28;20453;-71
2023/07/16 01:41:24;;;;;;;3.57;2.93;;;22.70;99.90;;;;;;5079217;28;20413;-70
2023/07/16 01:43:50;;;;;;;3.80;3.50;;;22.70;99.90;;;;;;5087430;28;20307;-70
2023/07/16 01:46:16;;;;;;;6.33;3.80;;;22.70;99.90;;;;;;5092918;28;20453;-71
2023/07/16 01:48:42;;;;;;;4.37;3.97;;;22.60;99.90;;;;;;5091803;28;20185;-71
2023/07/16 01:51:07;;;;;;;5.47;3.70;;;22.60;99.90;;;;;;5091208;28;20213;-71
2023/07/16 01:53:33;;;;;;;3.70;3.40;;;22.50;99.90;;;;;;5086149;28;20182;-70
2023/07/16 01:56:00;;;;;;;4.57;4.17;;;22.50;99.90;;;;;;5094813;28;20174;-70
2023/07/16 01:58:26;;;;;;;5.67;4.10;;;22.50;99.90;;;;;;5097692;28;20609;-69
2023/07/16 02:00:51;;;;;;;3.97;3.57;;;22.50;99.90;;;;;;5091621;28;20493;-70
2023/07/16 02:03:17;;;;;;;4.77;4.33;;;22.40;99.90;;;;;;5089541;28;20564;-70
2023/07/16 02:05:43;;;;;;;4.17;3.83;;;22.40;99.90;;;;;;5085359;28;20225;-70
2023/07/16 02:08:08;;;;;;;7.03;3.67;;;22.40;99.90;;;;;;5087666;28;20243;-70
2023/07/16 02:10:34;;;;;;;4.43;3.57;;;22.40;99.90;;;;;;5085348;28;20224;-70
2023/07/16 02:12:59;;;;;;;5.20;3.83;;;22.40;99.90;;;;;;5091048;28;20175;-70
2023/07/16 02:15:25;;;;;;;3.27;2.97;;;22.40;99.90;;;;;;5089289;28;20177;-70
2023/07/16 02:17:51;;;;;;;3.83;3.40;;;22.40;99.90;;;;;;5085992;28;20203;-71
2023/07/16 02:20:16;;;;;;;3.83;2.97;;;22.40;99.90;;;;;;5087865;28;20195;-69
2023/07/16 02:22:42;;;;;;;3.50;3.20;;;22.50;99.90;;;;;;5084523;28;20244;-71
2023/07/16 02:25:07;;;;;;;2.93;2.63;;;22.50;99.90;;;;;;5086825;28;20172;-70
2023/07/16 02:27:33;;;;;;;3.60;3.00;;;22.40;99.90;;;;;;5097300;28;20220;-69
2023/07/16 02:29:59;;;;;;;2.70;2.50;;;22.20;99.90;;;;;;5087940;28;20198;-69
2023/07/16 02:32:24;;;;;;;3.33;3.00;;;22.10;99.90;;;;;;5095524;28;20245;-70
2023/07/16 02:34:50;;;;;;;3.47;3.17;;;22.00;99.90;;;;;;5085149;28;20170;-70
2023/07/16 02:37:16;;;;;;;3.63;2.87;;;21.70;99.90;;;;;;5087380;28;20514;-70
2023/07/16 02:39:42;;;;;;;3.63;2.93;;;21.60;99.90;;;;;;5084515;28;20204;-70
2023/07/16 02:42:08;;;;;;;4.17;3.87;;;21.60;99.90;;;;;;5094465;28;20651;-69
2023/07/16 02:44:38;;;;;;;3.87;3.47;;;21.40;99.90;;;;;;5078877;28;20446;-70
2023/07/16 02:47:04;;;;;;;3.23;2.93;;;21.40;99.90;;;;;;5072772;28;20253;-69
2023/07/16 02:49:29;;;;;;;4.13;3.27;;;21.30;99.90;;;;;;5099525;28;20621;-70
2023/07/16 02:51:55;;;;;;;4.23;3.87;;;21.40;99.90;;;;;;5089971;28;20201;-69
2023/07/16 02:54:20;;;;;;;3.87;3.47;;;21.40;99.90;;;;;;5090238;28;20262;-70
2023/07/16 02:56:47;;;;;;;4.00;2.67;;;21.40;99.90;;;;;;5100761;28;20227;-70
2023/07/16 02:59:12;;;;;;;4.73;3.30;;;21.40;99.90;;;;;;5094274;28;20232;-70
2023/07/16 03:01:38;;;;;;;4.03;3.20;;;21.30;99.90;;;;;;5092578;28;20898;-72
2023/07/16 03:04:04;;;;;;;3.73;3.43;;;21.20;99.90;;;;;;5092127;28;20189;-69
2023/07/16 03:06:29;;;;;;;5.37;3.50;;;21.10;99.90;;;;;;5097373;28;20172;-70
2023/07/16 03:08:55;;;;;;;4.30;3.17;;;21.20;99.90;;;;;;5095287;28;20246;-70
2023/07/16 03:11:20;;;;;;;6.30;4.00;;;21.20;99.90;;;;;;5095471;28;20598;-70
2023/07/16 03:13:46;;;;;;;4.90;3.70;;;21.10;99.90;;;;;;5100243;28;20166;-69
2023/07/16 03:16:11;;;;;;;3.90;3.60;;;21.00;99.90;;;;;;5084770;28;20296;-69
2023/07/16 03:18:37;;;;;;;4.30;3.87;;;21.00;99.90;;;;;;5091817;28;20249;-70
2023/07/16 03:21:02;;;;;;;4.80;3.60;;;21.10;99.90;;;;;;5096323;28;20190;-70
2023/07/16 03:23:28;;;;;;;4.47;3.60;;;21.00;99.90;;;;;;5073235;28;20173;-69
2023/07/16 03:25:54;;;;;;;4.40;4.00;;;20.90;99.90;;;;;;5094700;28;20176;-70
2023/07/16 03:28:19;;;;;;;4.07;3.77;;;21.00;99.90;;;;;;5095159;28;20166;-70
2023/07/16 03:30:47;;;;;;;5.50;3.90;;;21.00;99.90;;;;;;5100156;28;20199;-69
2023/07/16 03:33:13;;;;;;;6.37;4.20;;;20.90;99.90;;;;;;5089262;28;20543;-69
2023/07/16 03:35:38;;;;;;;4.10;3.70;;;20.90;99.90;;;;;;5098060;28;20424;-69
2023/07/16 03:38:04;;;;;;;6.60;4.10;;;20.90;99.90;;;;;;5090933;28;20208;-70
2023/07/16 03:40:30;;;;;;;4.97;4.10;;;20.90;99.90;;;;;;5096196;28;20305;-70
2023/07/16 03:42:55;;;;;;;4.30;3.90;;;20.80;99.90;;;;;;5103309;28;20168;-71
2023/07/16 03:45:21;;;;;;;4.93;3.90;;;20.90;99.90;;;;;;5089771;28;20440;-71
2023/07/16 03:47:47;;;;;;;4.30;3.90;;;20.80;99.90;;;;;;5092911;28;20605;-71
2023/07/16 03:50:12;;;;;;;4.50;4.10;;;20.80;99.90;;;;;;5094319;28;20276;-70
2023/07/16 03:52:38;;;;;;;4.00;3.70;;;20.80;99.90;;;;;;5095834;28;20226;-70
2023/07/16 03:55:04;;;;;;;3.70;3.40;;;20.70;99.90;;;;;;5093455;28;20178;-70
2023/07/16 03:57:30;;;;;;;3.43;3.13;;;20.70;99.90;;;;;;5086195;28;20177;-71
2023/07/16 03:59:56;;;;;;;6.37;3.43;;;20.70;99.90;;;;;;5092532;28;20809;-70
2023/07/16 04:02:22;;;;;;;3.70;2.70;;;20.80;99.90;;;;;;5091649;28;20182;-70
2023/07/16 04:04:47;;;;;;;4.80;2.90;;;20.80;99.90;;;;;;5093165;28;20170;-69
2023/07/16 04:07:13;;;;;;;2.90;2.70;;;20.80;99.90;;;;;;5090818;28;20754;-70
2023/07/16 04:09:39;;;;;;;2.83;2.60;;;20.80;99.90;;;;;;5092121;28;20193;-70
2023/07/16 04:12:06;;;;;;;3.77;3.47;;;20.80;99.90;;;;;;5089691;28;20547;-70
2023/07/16 04:14:32;;;;;;;3.10;2.90;;;20.90;99.90;;;;;;5099248;28;20467;-70
2023/07/16 04:16:57;;;;;;;4.40;2.87;;;20.90;99.90;;;;;;5094363;28;20456;-71
2023/07/16 04:19:23;;;;;;;2.93;2.73;;;20.90;99.90;;;;;;5092025;28;20474;-70
2023/07/16 04:21:49;;;;;;;3.93;3.23;;;20.80;99.90;;;;;;5092227;28;20565;-70
2023/07/16 04:24:14;;;;;;;3.07;2.80;;;20.80;99.90;;;;;;5100159;28;20646;-71
2023/07/16 04:26:40;;;;;;;2.53;2.33;;;20.90;99.90;;;;;;5088836;28;20572;-70
2023/07/16 04:29:05;;;;;;;4.60;2.80;;;20.90;99.90;;;;;;5092205;28;20204;-71
2023/07/16 04:31:31;;;;;;;4.23;2.90;;;20.80;99.90;;;;;;5088001;28;20588;-69
2023/07/16 04:33:57;;;;;;;2.90;2.67;;;21.00;99.90;;;;;;5094131;28;20178;-70
2023/07/16 04:36:22;;;;;;;2.87;2.67;;;20.90;99.90;;;;;;5099917;28;20176;-69
2023/07/16 04:38:48;;;;;;;2.97;2.73;;;20.90;99.90;;;;;;5094329;28;20202;-70
2023/07/16 04:41:13;;;;;;;2.97;2.73;;;20.90;99.90;;;;;;5091862;28;20665;-69
2023/07/16 04:43:39;;;;;;;2.83;2.63;;;20.90;99.90;;;;;;5088705;28;20171;-70
2023/07/16 04:46:05;;;;;;;2.70;2.50;;;20.90;99.90;;;;;;5095966;28;20179;-70
2023/07/16 04:48:31;;;;;;;3.60;2.83;;;20.80;99.90;;;;;;5087610;28;20499;-70
2023/07/16 04:50:56;;;;;;;5.13;2.30;;;20.90;99.90;;;;;;5093247;28;20214;-70
2023/07/16 04:53:23;;;;;;;3.33;2.60;;;20.90;99.90;;;;;;5088258;28;20180;-69
2023/07/16 04:55:49;;;;;;;3.93;3.53;;;20.90;99.90;;;;;;5087409;28;20587;-71
2023/07/16 04:58:15;;;;;;;2.40;2.20;;;20.90;99.90;;;;;;5093865;28;21008;-70
2023/07/16 05:00:41;;;;;;;3.10;2.27;;;20.90;99.90;;;;;;5096213;28;20618;-71
2023/07/16 05:03:06;;;;;;;2.73;2.53;;;20.90;99.90;;;;;;5093096;28;20479;-70
2023/07/16 05:05:32;;;;;;;3.57;3.27;;;21.00;99.90;;;;;;5096020;28;20265;-69
2023/07/16 05:07:58;;;;;;;7.10;3.20;;;21.00;99.90;;;;;;5094345;28;20204;-70
2023/07/16 05:10:23;;;;;;;3.53;3.23;;;21.00;99.90;;;;;;5096841;28;20202;-70
2023/07/16 05:12:49;;;;;;;4.13;3.53;;;21.00;99.90;;;;;;5099740;28;20171;-70
2023/07/16 05:15:15;;;;;;;2.90;2.60;;;21.00;99.90;;;;;;5088698;28;20694;-71
2023/07/16 05:17:41;;;;;;;3.20;2.90;;;21.00;99.90;;;;;;5097321;28;20422;-71
2023/07/16 05:20:07;;;;;;;3.60;3.30;;;21.00;99.90;;;;;;5086559;28;20815;-70
2023/07/16 05:22:33;;;;;;;2.63;2.43;;;21.00;99.90;;;;;;5095621;28;20317;-70
2023/07/16 05:24:59;;;;;;;3.23;2.87;;;21.20;99.90;;;;;;5085511;28;20502;-70
2023/07/16 05:27:24;;;;;;;2.70;2.50;;;21.40;99.90;;;;;;5087888;28;20411;-71
2023/07/16 05:29:50;;;;;;;3.83;3.17;;;21.40;99.90;;;;;;5099586;28;20193;-70
2023/07/16 05:32:16;;;;;;;4.50;3.20;;;21.60;99.90;;;;;;5096747;28;20174;-71
2023/07/16 05:34:41;;;;;;;3.90;3.43;;;22.00;99.90;;;;;;5090330;28;20273;-69
2023/07/16 05:37:07;;;;;;;5.67;3.20;;;22.70;99.90;;;;;;5097634;28;20173;-70
2023/07/16 05:39:33;;;;;;;2.80;2.13;;;22.90;99.90;;;;;;5091324;28;20197;-69
2023/07/16 05:41:58;;;;;;;3.87;2.90;;;22.90;99.90;;;;;;5092884;28;20165;-69
2023/07/16 05:44:24;;;;;;;3.03;2.73;;;23.10;99.90;;;;;;5096924;28;20181;-70
2023/07/16 05:46:49;;;;;;;3.10;2.80;;;23.00;99.90;;;;;;5086143;28;20169;-70
2023/07/16 05:49:15;;;;;;;2.90;2.70;;;22.80;99.90;;;;;;5094744;28;20233;-71
2023/07/16 05:51:41;;;;;;;3.17;2.70;;;23.10;99.90;;;;;;5085213;28;20470;-68
2023/07/16 05:54:06;;;;;;;2.97;2.07;;;23.20;99.90;;;;;;5092000;28;20193;-71
2023/07/16 05:56:32;;;;;;;3.73;2.60;;;23.20;99.90;;;;;;5097253;28;20412;-69
2023/07/16 05:58:58;;;;;;;3.73;2.70;;;23.20;99.90;;;;;;5067987;28;20809;-70
2023/07/16 06:01:23;;;;;;;3.30;2.80;;;23.60;99.90;;;;;;5089057;28;20293;-71
2023/07/16 06:03:49;;;;;;;2.60;2.40;;;24.00;99.90;;;;;;5067868;28;20176;-72
2023/07/16 06:06:15;;;;;;;3.03;2.63;;;23.90;99.90;;;;;;5087851;28;20261;-71
2023/07/16 06:08:40;;;;;;;3.40;2.83;;;24.50;99.90;;;;;;5098721;28;20204;-70
2023/07/16 06:11:06;;;;;;;4.67;4.30;;;25.10;99.90;;;;;;5086779;28;20592;-70
2023/07/16 06:13:31;;;;;;;2.70;2.50;;;25.30;99.90;;;;;;5071211;28;20256;-70
2023/07/16 06:15:57;;;;;;;2.77;2.57;;;25.40;99.90;;;;;;5091725;28;20207;-70
2023/07/16 06:18:23;;;;;;;3.20;3.00;;;25.80;99.90;;;;;;5088663;28;20197;-70
2023/07/16 06:20:48;;;;;;;3.10;2.80;;;26.50;99.90;;;;;;5091470;28;20249;-69
2023/07/16 06:23:16;;;;;;;3.20;2.50;;;26.50;99.90;;;;;;5087612;28;20174;-72
2023/07/16 06:25:46;;;;;;;3.00;2.70;;;26.80;99.90;;;;;;5093815;28;20222;-70
2023/07/16 06:28:12;;;;;;;2.90;2.70;;;26.70;99.90;;;;;;5089089;28;20404;-70
2023/07/16 06:30:38;;;;;;;2.90;2.70;;;27.50;99.90;;;;;;5100206;28;20816;-70
2023/07/16 06:33:04;;;;;;;2.73;2.53;;;27.00;99.90;;;;;;5090627;28;20536;-70
2023/07/16 06:35:30;;;;;;;2.80;2.60;;;27.50;99.90;;;;;;5092047;28;20399;-72
2023/07/16 06:37:55;;;;;;;3.43;2.97;;;27.30;99.90;;;;;;5091599;28;20636;-70
2023/07/16 06:40:21;;;;;;;2.37;2.17;;;28.10;99.90;;;;;;5097075;28;20185;-70
2023/07/16 06:42:47;;;;;;;3.37;2.43;;;28.60;99.90;;;;;;5075156;28;20221;-71
2023/07/16 06:45:12;;;;;;;2.77;2.30;;;28.80;99.90;;;;;;5097039;28;20544;-71
2023/07/16 06:47:38;;;;;;;2.50;2.30;;;28.70;99.90;;;;;;5100668;28;20170;-70
2023/07/16 06:50:04;;;;;;;3.17;2.87;;;27.80;99.90;;;;;;5094572;28;20212;-70
2023/07/16 06:52:30;;;;;;;5.00;2.83;;;28.30;99.90;;;;;;5095589;28;20185;-72
2023/07/16 06:54:56;;;;;;;2.30;2.10;;;28.40;99.90;;;;;;5095869;28;20561;-71
2023/07/16 06:57:23;;;;;;;2.80;2.50;;;29.60;99.90;;;;;;5100814;28;20415;-70
2023/07/16 06:59:48;;;;;;;2.60;2.40;;;29.00;99.90;;;;;;5093919;28;20466;-70
2023/07/16 07:02:16;;;;;;;3.90;3.60;;;29.20;99.90;;;;;;5099129;28;20913;-72
2023/07/16 07:04:41;;;;;;;3.33;3.03;;;28.80;99.90;;;;;;5092341;28;20161;-71
2023/07/16 07:07:07;;;;;;;5.47;3.23;;;28.50;99.90;;;;;;5097360;28;20766;-70
2023/07/16 07:09:32;;;;;;;5.80;3.40;;;27.60;99.90;;;;;;5123398;22;20231;-68
2023/07/16 07:11:58;;;;;;;5.43;3.80;;;26.70;99.90;;;;;;5094779;28;20162;-68
2023/07/16 07:14:24;;;;;;;3.97;3.67;;;28.00;99.90;;;;;;5088692;28;20173;-69
2023/07/16 07:16:49;;;;;;;2.80;2.60;;;28.00;99.90;;;;;;5090171;28;20180;-68
2023/07/16 07:19:15;;;;;;;3.60;2.73;;;28.60;99.90;;;;;;5093537;28;20197;-68
2023/07/16 07:21:40;;;;;;;2.93;2.67;;;27.80;99.90;;;;;;5094374;28;20252;-68
2023/07/16 07:24:06;;;;;;;4.40;3.07;;;27.20;99.90;;;;;;5089371;28;20165;-69
2023/07/16 07:26:31;;;;;;;3.87;3.57;;;27.20;99.90;;;;;;5094110;28;20804;-69
2023/07/16 07:28:57;;;;;;;4.27;3.97;;;27.60;99.90;;;;;;5089857;28;20251;-71
2023/07/16 07:31:23;;;;;;;5.30;3.30;;;28.40;99.90;;;;;;5091016;28;20631;-68
2023/07/16 07:33:48;;;;;;;3.17;2.60;;;27.60;99.90;;;;;;5088086;28;20188;-67
2023/07/16 07:36:14;;;;;;;3.70;3.40;;;27.20;99.90;;;;;;5071470;28;20191;-69
2023/07/16 07:38:39;;;;;;;3.03;2.83;;;27.70;99.90;;;;;;5093719;28;20197;-69
2023/07/16 07:41:06;;;;;;;3.60;3.30;;;27.40;99.90;;;;;;5089035;28;20193;-68
2023/07/16 07:43:31;;;;;;;3.10;2.87;;;28.50;99.90;;;;;;5093214;28;20170;-69
2023/07/16 07:45:57;;;;;;;2.90;2.40;;;28.70;99.90;;;;;;5088358;28;20411;-69
2023/07/16 07:48:23;;;;;;;2.70;2.47;;;28.00;99.90;;;;;;5090059;28;20197;-67
2023/07/16 07:50:48;;;;;;;3.27;2.90;;;28.10;99.90;;;;;;5093615;28;20288;-68
2023/07/16 07:53:20;;;;;;;3.10;2.90;;;28.60;99.90;;;;;;5088230;28;20203;-71
2023/07/16 07:55:46;;;;;;;3.40;2.53;;;28.40;99.90;;;;;;5093843;28;20174;-67
2023/07/16 07:58:12;;;;;;;2.30;2.10;;;27.70;99.90;;;;;;5087035;28;20512;-67
2023/07/16 08:00:38;;;;;;;5.20;2.77;;;27.60;99.90;;;;;;5092768;28;20189;-67
2023/07/16 08:03:03;;;;;;;3.77;2.40;;;28.10;99.90;;;;;;5087407;28;20418;-68
2023/07/16 08:05:29;;;;;;;2.93;2.57;;;28.20;99.90;;;;;;5090052;28;20935;-68
2023/07/16 08:07:55;;;;;;;2.10;1.90;;;29.60;99.90;;;;;;5075769;28;20170;-70
2023/07/16 08:10:21;;;;;;;2.27;2.07;;;30.60;99.90;;;;;;5087721;28;20252;-70
2023/07/16 08:12:47;;;;;;;2.27;1.80;;;29.90;99.90;;;;;;5093430;28;20408;-69
2023/07/16 08:15:16;;;;;;;3.30;2.40;;;28.90;99.90;;;;;;5086480;28;20404;-68
2023/07/16 08:17:42;;;;;;;3.43;2.03;;;29.00;99.90;;;;;;5087179;28;20551;-67
2023/07/16 08:20:09;;;;;;;2.30;2.10;;;28.70;99.90;;;;;;5091630;28;20451;-67
2023/07/16 08:22:34;;;;;;;3.47;1.83;;;28.10;99.90;;;;;;5088560;28;20814;-67
2023/07/16 08:25:00;;;;;;;2.10;1.90;;;27.60;99.90;;;;;;5092973;28;20447;-68
2023/07/16 08:27:25;;;;;;;3.57;2.23;;;27.40;99.90;;;;;;5067417;28;20235;-69
2023/07/16 08:29:51;;;;;;;9.23;1.97;;;28.30;99.90;;;;;;5092890;28;20667;-69
2023/07/16 08:32:17;;;;;;;3.17;1.90;;;28.70;99.90;;;;;;5090509;28;20185;-69
2023/07/16 08:34:42;;;;;;;2.20;2.00;;;28.30;99.90;;;;;;5090829;28;20188;-68
2023/07/16 08:37:08;;;;;;;1.90;1.80;;;29.50;99.90;;;;;;5091427;28;20248;-69
2023/07/16 08:39:33;;;;;;;2.13;1.93;;;29.50;99.90;;;;;;5087852;28;20226;-69
2023/07/16 08:41:59;;;;;;;3.30;1.70;;;29.60;99.90;;;;;;5094676;28;20765;-68
2023/07/16 08:44:26;;;;;;;2.53;1.77;;;30.00;99.90;;;;;;5087610;28;20178;-68
2023/07/16 08:46:52;;;;;;;1.97;1.40;;;30.20;99.90;;;;;;5092622;28;20517;-68
2023/07/16 08:49:19;;;;;;;2.33;1.83;;;31.20;99.90;;;;;;5089938;28;20454;-68
2023/07/16 08:51:49;;;;;;;2.37;2.00;;;30.60;99.90;;;;;;5090997;28;20533;-66
2023/07/16 08:54:17;;;;;;;4.03;2.00;;;30.20;99.90;;;;;;5090520;28;20469;-67
2023/07/16 08:56:44;;;;;;;1.70;1.60;;;30.60;99.90;;;;;;5088676;28;20411;-68
2023/07/16 08:59:10;;;;;;;2.43;1.90;;;30.70;99.90;;;;;;5090986;28;20542;-68
2023/07/16 09:01:37;;;;;;;2.33;2.13;;;30.40;99.90;;;;;;5059589;28;20416;-69
2023/07/16 09:04:03;;;;;;;7.10;2.63;;;31.10;99.90;;;;;;5091917;28;20420;-66
2023/07/16 09:06:29;;;;;;;2.30;2.10;;;32.20;99.90;;;;;;5088697;28;20434;-68
2023/07/16 09:08:55;;;;;;;4.30;2.27;;;30.60;99.90;;;;;;5090870;28;20205;-68
2023/07/16 09:11:22;;;;;;;2.43;2.23;;;30.50;99.90;;;;;;5089264;28;20265;-68
2023/07/16 09:13:48;;;;;;;3.47;1.70;;;30.60;99.90;;;;;;5089208;28;20419;-68
2023/07/16 09:16:16;;;;;;;3.00;1.70;;;30.80;99.90;;;;;;5089943;28;20764;-67
2023/07/16 09:18:42;;;;;;;5.53;2.13;;;31.10;99.90;;;;;;5088913;28;20452;-67
2023/07/16 09:21:08;;;;;;;1.80;1.70;;;30.80;99.90;;;;;;5087653;28;20499;-68
2023/07/16 09:23:34;;;;;;;2.37;1.93;;;30.30;99.90;;;;;;5090658;28;20565;-67
2023/07/16 09:26:00;;;;;;;2.60;2.40;;;31.10;99.90;;;;;;5086703;28;20553;-67
2023/07/16 09:28:26;;;;;;;3.20;2.03;;;31.30;99.90;;;;;;5089345;28;20407;-67
2023/07/16 09:30:52;;;;;;;2.17;1.70;;;30.70;99.90;;;;;;5091705;28;20200;-69
2023/07/16 09:33:20;;;;;;;1.93;1.60;;;30.00;99.90;;;;;;5088379;28;20568;-68
2023/07/16 09:35:49;;;;;;;2.47;2.03;;;30.00;99.90;;;;;;5090799;28;20412;-68
2023/07/16 09:38:15;;;;;;;2.20;1.73;;;29.70;99.60;;;;;;5086376;28;20451;-68
2023/07/16 09:40:44;;;;;;;2.47;1.67;;;29.50;99.90;;;;;;5090301;28;20419;-69
2023/07/16 09:43:10;;;;;;;2.33;1.60;;;29.90;99.90;;;;;;5087192;28;20419;-69
2023/07/16 09:45:36;;;;;;;3.20;1.53;;;30.70;99.50;;;;;;5089291;28;20411;-69
2023/07/16 09:48:03;;;;;;;1.77;1.40;;;30.20;99.10;;;;;;5092544;28;20404;-69
2023/07/16 09:50:32;;;;;;;3.27;1.63;;;29.90;99.90;;;;;;5088787;28;20655;-69
2023/07/16 09:52:57;;;;;;;3.90;1.83;;;30.70;99.90;;;;;;5090922;28;20411;-68
2023/07/16 09:55:24;;;;;;;2.43;1.70;;;31.00;98.70;;;;;;5087029;28;20407;-69
2023/07/16 09:57:53;;;;;;;3.10;2.03;;;31.30;99.30;;;;;;5089923;28;20197;-68
2023/07/16 10:00:20;;;;;;;1.60;1.50;;;31.20;98.80;;;;;;5086275;28;20500;-67
2023/07/16 10:02:46;;;;;;;2.17;1.67;;;30.70;99.90;;;;;;5088846;28;20416;-70
2023/07/16 10:05:13;;;;;;;2.63;2.00;;;31.20;99.50;;;;;;5091809;28;20775;-68
2023/07/16 10:07:40;;;;;;;3.80;2.07;;;30.70;98.70;;;;;;5088233;28;20448;-68
2023/07/16 10:10:10;;;;;;;5.00;2.00;;;30.50;98.00;;;;;;5091053;28;20482;-70
2023/07/16 10:12:37;;;;;;;2.10;1.63;;;30.30;99.40;;;;;;5087427;28;20970;-69
2023/07/16 10:15:05;;;;;;;1.90;1.63;;;30.50;97.50;;;;;;5089335;28;20411;-69
2023/07/16 10:17:32;;;;;;;4.53;1.80;;;29.50;99.00;;;;;;5086063;28;20506;-68
2023/07/16 10:20:07;;;;;;;2.40;2.20;;;29.70;99.70;;;;;;5091635;28;20455;-68
2023/07/16 10:22:37;;;;;;;3.00;1.93;;;29.30;99.80;;;;;;5086830;28;20438;-68
2023/07/16 10:25:08;;;;;;;5.23;2.30;;;29.20;99.90;;;;;;5091199;28;20419;-68
2023/07/16 10:27:34;;;;;;;2.50;2.30;;;29.40;99.60;;;;;;5084913;28;20474;-67
2023/07/16 10:30:04;;;;;;;2.50;1.60;;;29.80;99.70;;;;;;5072888;28;20495;-67
2023/07/16 10:32:31;;;;;;;2.57;2.27;;;29.00;99.90;;;;;;5087942;28;20507;-68
2023/07/16 10:34:57;;;;;;;2.73;1.90;;;28.60;99.90;;;;;;5090280;28;20447;-68
2023/07/16 10:37:23;;;;;;;3.43;1.80;;;28.10;99.90;;;;;;5087829;28;20450;-68
2023/07/16 10:39:51;;;;;;;1.70;1.40;;;28.10;99.90;;;;;;5070252;28;20463;-69
2023/07/16 10:42:17;;;;;;;3.50;2.07;;;28.40;99.90;;;;;;5088932;28;20516;-68
2023/07/16 10:44:43;;;;;;;2.23;2.03;;;28.20;99.90;;;;;;5085843;28;21215;-69
2023/07/16 10:47:19;;;;;;;2.30;1.57;;;28.30;99.90;;;;;;5091175;28;20438;-68
2023/07/16 10:49:44;;;;;;;3.40;2.30;;;28.50;99.90;;;;;;5087720;28;20418;-67
2023/07/16 10:52:10;;;;;;;3.60;2.20;;;28.80;99.90;;;;;;5089959;28;20431;-68
2023/07/16 10:54:35;;;;;;;2.57;2.03;;;28.30;99.90;;;;;;5064408;28;20174;-69
2023/07/16 10:57:03;;;;;;;3.87;1.87;;;28.30;99.90;;;;;;5089450;28;20699;-67
2023/07/16 10:59:29;;;;;;;3.27;2.33;;;27.90;99.90;;;;;;5087188;28;20539;-68
2023/07/16 11:01:55;;;;;;;2.67;2.00;;;27.70;99.90;;;;;;5060944;28;20414;-68
2023/07/16 11:04:20;;;;;;;3.00;2.27;;;28.00;99.90;;;;;;5090662;28;20412;-67
2023/07/16 11:06:46;;;;;;;3.90;2.20;;;28.10;99.90;;;;;;5091160;28;20177;-69
2023/07/16 11:09:12;;;;;;;2.47;2.27;;;28.00;99.90;;;;;;5093520;28;20216;-68
2023/07/16 11:11:38;;;;;;;3.20;2.70;;;28.20;99.90;;;;;;5090374;28;20170;-69
2023/07/16 11:14:08;;;;;;;2.63;1.87;;;28.20;99.90;;;;;;5092719;28;20216;-69
2023/07/16 11:16:35;;;;;;;2.03;1.83;;;28.30;99.90;;;;;;5089768;28;20416;-69
2023/07/16 11:19:05;;;;;;;2.37;2.10;;;28.40;99.90;;;;;;5094033;28;20532;-69
2023/07/16 11:21:33;;;;;;;2.33;2.13;;;28.60;99.90;;;;;;5072335;28;20604;-69
2023/07/16 11:24:15;;;;;;;3.87;2.10;;;28.90;99.90;;;;;;5092625;28;20407;-68
2023/07/16 11:26:53;;;;;;;2.63;2.27;;;29.00;99.90;;;;;;5088583;28;20404;-69
2023/07/16 11:29:19;;;;;;;2.83;2.10;;;29.10;99.90;;;;;;5091566;28;20427;-69
2023/07/16 11:31:52;;;;;;;3.33;2.50;;;28.90;99.90;;;;;;5094244;28;20423;-68
2023/07/16 11:34:21;;;;;;;6.80;3.43;;;28.90;99.90;;;;;;5064185;28;20244;-68
2023/07/16 11:36:47;;;;;;;2.00;1.80;;;28.70;99.90;;;;;;5094278;28;20877;-69
2023/07/16 11:39:13;;;;;;;2.73;2.30;;;28.60;99.90;;;;;;5087683;28;20471;-67
2023/07/16 11:41:38;;;;;;;2.47;2.27;;;28.60;99.90;;;;;;5094391;28;20248;-70
2023/07/16 11:44:07;;;;;;;3.23;2.43;;;28.80;99.90;;;;;;5088538;28;20187;-68
2023/07/16 11:46:34;;;;;;;2.17;2.00;;;28.80;99.90;;;;;;5075030;28;20241;-72
2023/07/16 11:49:03;;;;;;;3.67;2.13;;;28.90;99.90;;;;;;5076032;28;20435;-68
2023/07/16 11:51:29;;;;;;;2.60;2.40;;;28.90;99.90;;;;;;5090239;28;20419;-69
2023/07/16 11:53:57;;;;;;;3.50;2.43;;;28.80;99.90;;;;;;5093753;28;20423;-68
2023/07/16 11:56:23;;;;;;;3.83;2.07;;;28.70;99.90;;;;;;5087438;28;20181;-70
2023/07/16 11:58:49;;;;;;;2.87;2.57;;;28.70;99.90;;;;;;5093510;28;20941;-69
2023/07/16 12:01:15;;;;;;;3.87;2.20;;;28.70;99.30;;;;;;5086125;28;20187;-69
2023/07/16 12:03:41;;;;;;;3.43;1.90;;;28.40;98.00;;;;;;5092751;28;20412;-69
2023/07/16 12:06:07;;;;;;;2.70;1.63;;;27.90;98.40;;;;;;5074339;28;20219;-67
2023/07/16 12:08:33;;;;;;;2.67;2.13;;;28.00;99.40;;;;;;5089899;28;20191;-69
2023/07/16 12:10:59;;;;;;;4.30;2.00;;;28.50;98.10;;;;;;5093447;28;20902;-68
2023/07/16 12:13:24;;;;;;;4.27;2.33;;;28.30;97.10;;;;;;5087174;28;20174;-68
2023/07/16 12:15:50;;;;;;;2.27;1.87;;;28.70;95.30;;;;;;5093163;28;20226;-69
2023/07/16 12:18:15;;;;;;;7.13;2.10;;;28.30;95.20;;;;;;5087532;28;20239;-68
2023/07/16 12:20:41;;;;;;;2.33;1.63;;;28.00;95.50;;;;;;5088820;28;20196;-68
2023/07/16 12:23:06;;;;;;;4.07;1.90;;;28.20;95.50;;;;;;5091539;28;20177;-68
2023/07/16 12:25:32;;;;;;;2.80;1.77;;;28.30;93.40;;;;;;5088621;28;20181;-69
2023/07/16 12:27:57;;;;;;;3.43;1.93;;;28.60;92.20;;;;;;5090072;28;20193;-69
2023/07/16 12:30:24;;;;;;;1.90;1.70;;;29.00;91.90;;;;;;5092845;28;20197;-68
2023/07/16 12:32:50;;;;;;;4.73;2.27;;;29.20;91.70;;;;;;5089908;28;20174;-72
2023/07/16 12:35:16;;;;;;;2.40;1.67;;;29.30;91.70;;;;;;5092018;28;20538;-68
2023/07/16 12:37:41;;;;;;;3.80;2.17;;;29.10;90.30;;;;;;5088596;28;20481;-68
2023/07/16 12:40:08;;;;;;;1.80;1.70;;;28.90;90.70;;;;;;5086205;28;20198;-70
2023/07/16 12:42:34;;;;;;;4.50;1.83;;;29.00;90.50;;;;;;5085051;28;20182;-68
2023/07/16 12:45:00;;;;;;;2.00;1.77;;;29.10;89.50;;;;;;5085638;28;20782;-65